createdAt,value
2022-09-15T00:00:32.385Z,2.60
2022-09-15T00:02:59.672Z,3.22
2022-09-15T00:05:26.835Z,3.22
2022-09-15T00:07:55.772Z,3.42
2022-09-15T00:10:22.902Z,3.72
2022-09-15T00:12:50.165Z,3.80
2022-09-15T00:15:17.538Z,3.65
2022-09-15T00:17:49.776Z,3.72
2022-09-15T00:20:19.426Z,3.42
2022-09-15T00:22:47.477Z,3.45
2022-09-15T00:25:15.380Z,2.28
2022-09-15T00:27:42.512Z,2.17
2022-09-15T00:30:10.032Z,2.30
2022-09-15T00:32:37.275Z,2.15
2022-09-15T00:35:05.098Z,2.25
2022-09-15T00:37:33.080Z,1.98
2022-09-15T00:40:00.347Z,2.08
2022-09-15T00:42:27.546Z,2.10
2022-09-15T00:45:00.655Z,2.55
2022-09-15T00:47:34.352Z,2.38
2022-09-15T00:50:13.635Z,2.00
2022-09-15T00:52:54.815Z,2.22
2022-09-15T00:55:39.341Z,2.28
2022-09-15T00:58:13.563Z,2.35
2022-09-15T01:01:10.747Z,2.40
2022-09-15T01:03:38.073Z,2.20
2022-09-15T01:06:13.686Z,2.40
2022-09-15T01:09:16.114Z,2.00
2022-09-15T01:11:43.276Z,2.20
2022-09-15T01:14:11.259Z,2.30
2022-09-15T01:16:50.115Z,2.10
2022-09-15T01:19:20.233Z,2.08
2022-09-15T01:22:17.451Z,2.20
2022-09-15T01:24:56.490Z,1.80
2022-09-15T01:27:43.102Z,1.75
2022-09-15T01:30:20.488Z,1.90
2022-09-15T01:33:05.678Z,2.25
2022-09-15T01:35:52.963Z,2.17
2022-09-15T01:38:43.905Z,1.67
2022-09-15T01:41:17.880Z,1.60
2022-09-15T01:44:08.841Z,1.58
2022-09-15T01:46:40.471Z,1.60
2022-09-15T01:49:10.985Z,1.70
2022-09-15T01:51:40.667Z,1.60
2022-09-15T01:54:08.790Z,1.73
2022-09-15T01:56:38.699Z,1.50
2022-09-15T01:59:06.183Z,1.90
2022-09-15T02:01:43.729Z,1.58
2022-09-15T02:04:18.144Z,1.80
2022-09-15T02:06:56.169Z,1.70
2022-09-15T02:09:36.928Z,1.50
2022-09-15T02:12:33.791Z,1.65
2022-09-15T02:15:07.900Z,1.50
2022-09-15T02:17:38.924Z,1.45
2022-09-15T02:20:17.698Z,1.48
2022-09-15T02:22:52.127Z,1.70
2022-09-15T02:25:28.834Z,1.70
2022-09-15T02:28:02.509Z,1.40
2022-09-15T02:30:32.339Z,1.52
2022-09-15T02:33:03.927Z,1.50
2022-09-15T02:35:34.878Z,1.48
2022-09-15T02:38:05.454Z,1.70
2022-09-15T02:40:33.256Z,1.60
2022-09-15T02:43:02.215Z,1.40
2022-09-15T02:45:31.330Z,1.50
2022-09-15T02:47:58.987Z,1.63
2022-09-15T02:50:26.804Z,1.50
2022-09-15T02:52:55.428Z,1.70
2022-09-15T02:55:23.728Z,1.70
2022-09-15T02:57:50.862Z,1.40
2022-09-15T03:00:19.962Z,1.50
2022-09-15T03:02:50.148Z,1.58
2022-09-15T03:05:19.799Z,1.50
2022-09-15T03:07:47.199Z,1.63
2022-09-15T03:10:14.680Z,1.60
2022-09-15T03:12:45.804Z,1.50
2022-09-15T03:15:14.955Z,1.63
2022-09-15T03:17:43.269Z,1.60
2022-09-15T03:20:12.585Z,1.50
2022-09-15T03:22:39.846Z,1.40
2022-09-15T03:25:07.838Z,1.70
2022-09-15T03:27:35.593Z,1.60
2022-09-15T03:30:04.200Z,1.30
2022-09-15T03:32:31.434Z,1.48
2022-09-15T03:34:59.106Z,1.38
2022-09-15T03:37:26.607Z,1.30
2022-09-15T03:39:53.818Z,1.23
2022-09-15T03:42:21.354Z,1.27
2022-09-15T03:44:48.491Z,1.83
2022-09-15T03:47:15.717Z,1.57
2022-09-15T03:49:42.934Z,1.30
2022-09-15T03:52:10.078Z,1.38
2022-09-15T03:54:37.228Z,1.30
2022-09-15T03:57:04.593Z,1.70
2022-09-15T03:59:31.778Z,1.33
2022-09-15T04:01:59.017Z,1.27
2022-09-15T04:04:26.292Z,1.35
2022-09-15T04:06:53.417Z,1.52
2022-09-15T04:09:21.415Z,1.45
2022-09-15T04:11:48.635Z,1.50
2022-09-15T04:14:15.882Z,1.45
2022-09-15T04:16:43.022Z,1.52
2022-09-15T04:19:10.633Z,1.40
2022-09-15T04:21:37.765Z,1.48
2022-09-15T04:24:05.837Z,1.55
2022-09-15T04:26:35.768Z,1.73
2022-09-15T04:29:05.101Z,1.40
2022-09-15T04:31:33.399Z,1.48
2022-09-15T04:34:00.911Z,1.60
2022-09-15T04:36:29.323Z,1.30
2022-09-15T04:38:58.041Z,1.50
2022-09-15T04:41:26.818Z,1.50
2022-09-15T04:43:54.154Z,1.40
2022-09-15T04:46:21.556Z,2.00
2022-09-15T04:48:49.282Z,1.20
2022-09-15T04:51:22.503Z,1.30
2022-09-15T04:53:50.146Z,1.60
2022-09-15T04:56:20.111Z,1.50
2022-09-15T04:58:49.937Z,1.25
2022-09-15T05:01:28.326Z,1.40
2022-09-15T05:03:56.058Z,1.50
2022-09-15T05:06:25.637Z,1.73
2022-09-15T05:08:55.158Z,1.60
2022-09-15T05:11:23.570Z,1.80
2022-09-15T05:13:50.901Z,1.80
2022-09-15T05:16:21.528Z,1.58
2022-09-15T05:18:50.570Z,1.52
2022-09-15T05:21:19.848Z,1.35
2022-09-15T05:23:47.902Z,1.83
2022-09-15T05:26:21.266Z,1.52
2022-09-15T05:28:48.393Z,1.70
2022-09-15T05:31:21.004Z,1.75
2022-09-15T05:33:49.729Z,1.38
2022-09-15T05:36:19.165Z,1.45
2022-09-15T05:38:46.614Z,1.30
2022-09-15T05:41:16.869Z,1.50
2022-09-15T05:43:48.490Z,1.63
2022-09-15T05:46:17.346Z,1.42
2022-09-15T05:48:45.647Z,1.63
2022-09-15T05:51:13.402Z,1.58
2022-09-15T05:53:40.734Z,1.60
2022-09-15T05:56:11.977Z,1.75
2022-09-15T05:58:44.630Z,1.70
2022-09-15T06:01:16.588Z,1.80
2022-09-15T06:03:44.247Z,1.60
2022-09-15T06:06:12.148Z,1.80
2022-09-15T06:08:47.815Z,1.63
2022-09-15T06:11:21.001Z,1.77
2022-09-15T06:13:48.810Z,1.70
2022-09-15T06:16:21.412Z,1.70
2022-09-15T06:18:50.134Z,1.63
2022-09-15T06:21:22.881Z,1.55
2022-09-15T06:24:01.854Z,1.50
2022-09-15T06:26:29.923Z,1.58
2022-09-15T06:29:00.330Z,1.50
2022-09-15T06:31:28.980Z,1.90
2022-09-15T06:33:57.643Z,1.30
2022-09-15T06:36:28.378Z,1.50
2022-09-15T06:38:56.834Z,1.80
2022-09-15T06:41:23.975Z,1.48
2022-09-15T06:43:51.290Z,1.48
2022-09-15T06:46:21.551Z,1.60
2022-09-15T06:48:49.331Z,1.40
2022-09-15T06:51:18.345Z,1.60
2022-09-15T06:53:46.016Z,1.40
2022-09-15T06:56:23.391Z,1.40
2022-09-15T06:58:51.117Z,1.70
2022-09-15T07:01:28.047Z,1.40
2022-09-15T07:03:56.966Z,1.70
2022-09-15T07:06:25.003Z,1.30
2022-09-15T07:08:53.800Z,1.70
2022-09-15T07:11:21.230Z,1.40
2022-09-15T07:13:49.127Z,1.60
2022-09-15T07:16:18.095Z,1.77
2022-09-15T07:18:46.315Z,1.50
2022-09-15T07:21:19.696Z,1.95
2022-09-15T07:23:47.769Z,1.60
2022-09-15T07:26:16.008Z,1.90
2022-09-15T07:28:47.924Z,1.70
2022-09-15T07:31:17.092Z,1.88
2022-09-15T07:33:44.530Z,1.63
2022-09-15T07:36:12.190Z,1.77
2022-09-15T07:38:41.560Z,1.50
2022-09-15T07:41:23.817Z,1.40
2022-09-15T07:43:53.095Z,1.52
2022-09-15T07:46:21.981Z,1.70
2022-09-15T07:48:51.093Z,1.50
2022-09-15T07:51:18.974Z,1.42
2022-09-15T07:53:47.907Z,1.65
2022-09-15T07:56:19.352Z,1.50
2022-09-15T07:58:47.808Z,1.40
2022-09-15T08:01:16.239Z,1.92
2022-09-15T08:03:51.749Z,1.60
2022-09-15T08:06:22.514Z,1.58
2022-09-15T08:08:52.281Z,1.40
2022-09-15T08:11:21.611Z,1.80
2022-09-15T08:13:50.172Z,1.45
2022-09-15T08:16:20.144Z,1.55
2022-09-15T08:18:48.084Z,1.60
2022-09-15T08:21:20.097Z,1.50
2022-09-15T08:23:52.428Z,1.40
2022-09-15T08:26:19.728Z,1.38
2022-09-15T08:28:47.114Z,1.80
2022-09-15T08:31:14.942Z,1.97
2022-09-15T08:33:54.275Z,1.75
2022-09-15T08:36:21.751Z,1.60
2022-09-15T08:38:49.570Z,1.42
2022-09-15T08:41:25.515Z,1.50
2022-09-15T08:43:58.221Z,1.30
2022-09-15T08:46:47.402Z,1.42
2022-09-15T08:49:47.821Z,1.50
2022-09-15T08:52:30.070Z,1.48
2022-09-15T08:55:01.084Z,1.70
2022-09-15T08:57:28.268Z,1.85
2022-09-15T08:59:58.987Z,1.80
2022-09-15T09:02:40.300Z,1.80
2022-09-15T09:05:32.118Z,1.80
2022-09-15T09:08:10.399Z,1.80
2022-09-15T09:10:49.531Z,1.73
2022-09-15T09:13:38.544Z,1.50
2022-09-15T09:16:13.860Z,1.80
2022-09-15T09:18:56.056Z,1.80
2022-09-15T09:21:39.969Z,1.73
2022-09-15T09:24:17.441Z,1.55
2022-09-15T09:26:53.118Z,1.27
2022-09-15T09:29:31.422Z,1.50
2022-09-15T09:31:59.150Z,1.42
2022-09-15T09:34:35.341Z,1.30
2022-09-15T09:37:11.157Z,1.77
2022-09-15T09:39:38.465Z,1.55
2022-09-15T09:42:07.039Z,1.45
2022-09-15T09:44:34.625Z,1.40
2022-09-15T09:47:01.972Z,1.48
2022-09-15T09:49:38.543Z,1.47
2022-09-15T09:52:05.736Z,1.80
2022-09-15T09:54:35.422Z,1.60
2022-09-15T09:57:14.908Z,1.30
2022-09-15T09:59:47.416Z,1.42
2022-09-15T10:02:24.779Z,1.50
2022-09-15T10:04:56.118Z,1.30
2022-09-15T10:07:26.155Z,1.47
2022-09-15T10:10:01.045Z,2.20
2022-09-15T10:12:40.382Z,1.20
2022-09-15T10:15:31.714Z,1.30
2022-09-15T10:17:58.944Z,1.45
2022-09-15T10:20:26.124Z,1.35
2022-09-15T10:23:06.547Z,1.70
2022-09-15T10:25:57.490Z,2.00
2022-09-15T10:28:26.123Z,1.20
2022-09-15T10:31:07.128Z,1.33
2022-09-15T10:33:50.634Z,1.52
2022-09-15T10:36:21.215Z,1.40
2022-09-15T10:39:19.692Z,1.20
2022-09-15T10:42:11.826Z,1.27
2022-09-15T10:45:11.017Z,1.52
2022-09-15T10:48:00.266Z,1.20
2022-09-15T10:50:33.834Z,1.30
2022-09-15T10:53:00.963Z,1.40
2022-09-15T10:55:52.413Z,1.30
2022-09-15T10:59:00.463Z,1.33
2022-09-15T11:01:30.386Z,1.50
2022-09-15T11:04:24.885Z,1.30
2022-09-15T11:07:30.275Z,1.48
2022-09-15T11:10:20.282Z,1.50
2022-09-15T11:12:58.749Z,1.83
2022-09-15T11:15:37.736Z,1.33
2022-09-15T11:18:19.683Z,1.50
2022-09-15T11:21:38.102Z,1.45
2022-09-15T11:24:35.610Z,1.83
2022-09-15T11:27:05.255Z,1.60
2022-09-15T11:29:42.418Z,1.70
2022-09-15T11:32:19.360Z,1.60
2022-09-15T11:34:52.863Z,1.88
2022-09-15T11:37:29.552Z,1.23
2022-09-15T11:40:13.640Z,1.70
2022-09-15T11:42:55.734Z,1.80
2022-09-15T11:45:35.158Z,1.95
2022-09-15T11:48:19.411Z,2.13
2022-09-15T11:50:52.134Z,1.90
2022-09-15T11:53:45.325Z,2.17
2022-09-15T11:56:23.390Z,1.70
2022-09-15T11:58:50.718Z,1.95
2022-09-15T12:01:24.433Z,1.63
2022-09-15T12:04:02.542Z,1.70
2022-09-15T12:06:46.338Z,1.45
2022-09-15T12:09:19.365Z,1.65
2022-09-15T12:11:49.085Z,1.50
2022-09-15T12:14:27.295Z,1.40
2022-09-15T12:16:55.421Z,1.52
2022-09-15T12:19:47.325Z,1.20
2022-09-15T12:22:31.868Z,1.10
2022-09-15T12:25:16.689Z,1.00
2022-09-15T12:27:43.837Z,1.48
2022-09-15T12:30:38.656Z,1.50
2022-09-15T12:33:43.089Z,1.57
2022-09-15T12:36:29.856Z,1.60
2022-09-15T12:38:58.389Z,1.58
2022-09-15T12:41:26.282Z,1.58
2022-09-15T12:44:01.522Z,1.38
2022-09-15T12:46:28.906Z,1.30
2022-09-15T12:49:02.203Z,1.30
2022-09-15T12:51:30.149Z,1.50
2022-09-15T12:54:04.426Z,1.33
2022-09-15T12:56:33.575Z,0.90
2022-09-15T12:59:06.946Z,1.60
2022-09-15T13:01:55.447Z,1.38
2022-09-15T13:04:43.544Z,1.63
2022-09-15T13:07:19.699Z,1.40
2022-09-15T13:10:12.831Z,1.58
2022-09-15T13:12:48.037Z,1.50
2022-09-15T13:15:17.469Z,1.30
2022-09-15T13:17:46.226Z,1.30
2022-09-15T13:20:19.289Z,1.13
2022-09-15T13:22:51.508Z,1.33
2022-09-15T13:25:26.098Z,2.20
2022-09-15T13:28:01.167Z,1.48
2022-09-15T13:31:00.699Z,1.57
2022-09-15T13:36:27.422Z,1.35
2022-09-15T13:39:05.286Z,1.33
2022-09-15T13:42:03.210Z,1.13
2022-09-15T13:45:15.553Z,1.00
2022-09-15T13:48:01.106Z,1.23
2022-09-15T13:50:39.230Z,1.60
2022-09-15T13:53:37.161Z,1.40
2022-09-15T13:56:08.850Z,1.40
2022-09-15T14:01:24.051Z,1.40
2022-09-15T14:03:51.182Z,1.60
2022-09-15T14:06:22.784Z,1.20
2022-09-15T14:08:54.386Z,1.40
2022-09-15T14:11:26.665Z,1.60
2022-09-15T14:13:55.013Z,1.27
2022-09-15T14:16:24.325Z,1.50
2022-09-15T14:18:54.018Z,1.20
2022-09-15T14:21:33.064Z,1.15
2022-09-15T14:24:06.027Z,1.27
2022-09-15T14:26:35.760Z,1.30
2022-09-15T14:29:05.714Z,1.43
2022-09-15T14:31:38.905Z,1.20
2022-09-15T14:34:14.468Z,1.70
2022-09-15T14:36:41.857Z,1.50
2022-09-15T14:39:12.079Z,1.47
2022-09-15T14:41:40.147Z,1.50
2022-09-15T14:47:28.222Z,1.38
2022-09-15T14:50:15.190Z,1.93
2022-09-15T14:52:51.748Z,1.20
2022-09-15T14:55:30.630Z,1.25
2022-09-15T14:58:05.202Z,1.00
2022-09-15T15:00:40.587Z,1.45
2022-09-15T15:03:23.487Z,1.20
2022-09-15T15:06:03.036Z,1.30
2022-09-15T15:08:54.517Z,1.50
2022-09-15T15:11:22.477Z,1.60
2022-09-15T15:13:52.256Z,1.37
2022-09-15T15:16:30.954Z,1.52
2022-09-15T15:18:58.636Z,1.60
2022-09-15T15:21:37.733Z,1.60
2022-09-15T15:24:15.278Z,1.27
2022-09-15T15:26:45.202Z,1.25
2022-09-15T15:29:43.034Z,1.30
2022-09-15T15:32:30.853Z,1.20
2022-09-15T15:35:01.711Z,1.45
2022-09-15T15:37:31.902Z,1.30
2022-09-15T15:40:02.123Z,1.20
2022-09-15T15:42:29.790Z,1.30
2022-09-15T15:45:09.255Z,1.10
2022-09-15T15:47:37.372Z,1.30
2022-09-15T15:50:15.920Z,1.20
2022-09-15T15:52:43.937Z,1.35
2022-09-15T15:55:23.051Z,1.38
2022-09-15T15:57:52.734Z,1.30
2022-09-15T16:00:31.799Z,1.20
2022-09-15T16:02:58.944Z,1.20
2022-09-15T16:05:27.539Z,1.35
2022-09-15T16:07:56.522Z,1.40
2022-09-15T16:10:27.975Z,1.40
2022-09-15T16:12:56.015Z,1.50
2022-09-15T16:15:23.208Z,1.30
2022-09-15T16:17:50.374Z,1.30
2022-09-15T16:20:19.516Z,1.60
2022-09-15T16:22:46.781Z,1.35
2022-09-15T16:25:36.664Z,1.40
2022-09-15T16:28:04.838Z,1.30
2022-09-15T16:30:32.632Z,1.50
2022-09-15T16:33:00.084Z,1.65
2022-09-15T16:35:39.839Z,1.70
2022-09-15T16:38:07.761Z,1.60
2022-09-15T16:40:37.001Z,1.20
2022-09-15T16:43:09.050Z,1.45
2022-09-15T16:45:40.603Z,1.45
2022-09-15T16:48:09.314Z,1.25
2022-09-15T16:50:39.798Z,1.20
2022-09-15T16:53:21.462Z,1.30
2022-09-15T16:55:55.536Z,1.40
2022-09-15T16:58:22.873Z,1.63
2022-09-15T17:00:54.481Z,1.20
2022-09-15T17:03:23.867Z,1.50
2022-09-15T17:05:52.928Z,1.30
2022-09-15T17:08:22.366Z,1.60
2022-09-15T17:10:50.315Z,1.50
2022-09-15T17:13:20.345Z,1.60
2022-09-15T17:15:48.701Z,1.48
2022-09-15T17:18:16.736Z,1.48
2022-09-15T17:20:47.060Z,1.13
2022-09-15T17:23:25.806Z,1.20
2022-09-15T17:25:58.980Z,1.25
2022-09-15T17:28:29.173Z,1.55
2022-09-15T17:31:00.394Z,1.30
2022-09-15T17:33:29.625Z,1.30
2022-09-15T17:35:57.321Z,1.40
2022-09-15T17:38:25.062Z,1.30
2022-09-15T17:40:53.058Z,1.30
2022-09-15T17:43:26.152Z,1.20
2022-09-15T17:45:54.013Z,1.30
2022-09-15T17:48:22.255Z,1.10
2022-09-15T17:50:50.066Z,1.10
2022-09-15T17:53:27.994Z,1.15
2022-09-15T17:55:57.275Z,1.10
2022-09-15T17:58:26.561Z,1.48
2022-09-15T18:00:54.353Z,1.60
2022-09-15T18:03:27.598Z,1.88
2022-09-15T18:06:00.119Z,1.90
2022-09-15T18:08:27.749Z,1.42
2022-09-15T18:10:55.444Z,1.50
2022-09-15T18:13:26.391Z,1.30
2022-09-15T18:15:56.654Z,1.40
2022-09-15T18:18:26.547Z,1.20
2022-09-15T18:20:56.628Z,1.00
2022-09-15T18:23:26.571Z,1.20
2022-09-15T18:25:53.942Z,1.50
2022-09-15T18:28:21.175Z,1.40
2022-09-15T18:30:49.960Z,1.33
2022-09-15T18:33:20.181Z,1.17
2022-09-15T18:35:51.912Z,1.30
2022-09-15T18:38:19.447Z,1.27
2022-09-15T18:40:49.252Z,1.30
2022-09-15T18:43:17.259Z,1.17
2022-09-15T18:45:44.481Z,1.23
2022-09-15T18:48:13.168Z,1.73
2022-09-15T18:50:41.482Z,1.60
2022-09-15T18:53:09.110Z,1.60
2022-09-15T18:55:36.304Z,1.67
2022-09-15T18:58:03.547Z,1.75
2022-09-15T19:00:31.699Z,1.63
2022-09-15T19:03:00.536Z,1.88
2022-09-15T19:05:29.169Z,2.00
2022-09-15T19:07:56.747Z,1.90
2022-09-15T19:10:26.466Z,1.60
2022-09-15T19:12:53.945Z,1.77
2022-09-15T19:15:23.767Z,1.20
2022-09-15T19:17:51.758Z,1.67
2022-09-15T19:20:19.163Z,1.20
2022-09-15T19:22:47.343Z,1.88
2022-09-15T19:25:14.512Z,1.95
2022-09-15T19:27:41.737Z,2.10
2022-09-15T19:30:10.467Z,2.15
2022-09-15T19:32:38.817Z,1.80
2022-09-15T19:35:06.889Z,2.00
2022-09-15T19:37:39.871Z,1.50
2022-09-15T19:40:09.556Z,1.23
2022-09-15T19:42:38.460Z,1.20
2022-09-15T19:45:07.394Z,1.25
2022-09-15T19:47:35.281Z,1.50
2022-09-15T19:50:03.414Z,1.25
2022-09-15T19:52:30.594Z,1.65
2022-09-15T19:54:57.722Z,1.50
2022-09-15T19:57:24.921Z,1.83
2022-09-15T19:59:52.033Z,1.90
2022-09-15T20:02:19.885Z,1.70
2022-09-15T20:04:47.598Z,1.15
2022-09-15T20:07:14.737Z,1.50
2022-09-15T20:09:42.116Z,1.45
2022-09-15T20:12:09.417Z,1.30
2022-09-15T20:14:36.593Z,1.67
2022-09-15T20:17:04.059Z,1.30
2022-09-15T20:19:31.318Z,1.50
2022-09-15T20:21:58.677Z,1.40
2022-09-15T20:24:25.966Z,1.30
2022-09-15T20:26:53.413Z,1.50
2022-09-15T20:29:21.330Z,1.70
2022-09-15T20:31:48.515Z,1.83
2022-09-15T20:34:16.662Z,1.80
2022-09-15T20:36:44.421Z,1.70
2022-09-15T20:39:14.487Z,1.65
2022-09-15T20:41:44.970Z,2.05
2022-09-15T20:44:14.671Z,1.45
2022-09-15T20:46:41.852Z,1.47
2022-09-15T20:49:10.189Z,2.00
2022-09-15T20:51:37.341Z,2.00
2022-09-15T20:54:05.073Z,2.30
2022-09-15T20:56:34.784Z,1.83
2022-09-15T20:59:03.115Z,2.00
2022-09-15T21:01:36.650Z,2.78
2022-09-15T21:04:05.250Z,2.20
2022-09-15T21:06:33.130Z,1.67
2022-09-15T21:09:00.871Z,1.70
2022-09-15T21:11:29.049Z,1.40
2022-09-15T21:13:57.470Z,1.40
2022-09-15T21:16:27.954Z,1.55
2022-09-15T21:18:56.823Z,1.85
2022-09-15T21:21:26.616Z,1.50
2022-09-15T21:23:56.161Z,1.60
2022-09-15T21:26:28.450Z,1.67
2022-09-15T21:28:57.232Z,1.70
2022-09-15T21:31:32.914Z,2.10
2022-09-15T21:34:00.497Z,1.60
2022-09-15T21:36:29.901Z,1.50
2022-09-15T21:38:58.599Z,1.40
2022-09-15T21:41:29.832Z,1.80
2022-09-15T21:43:58.693Z,1.20
2022-09-15T21:46:28.434Z,1.50
2022-09-15T21:48:57.520Z,2.55
2022-09-15T21:51:26.049Z,2.53
2022-09-15T21:53:54.898Z,1.80
2022-09-15T21:56:23.146Z,2.55
2022-09-15T21:58:50.269Z,1.38
2022-09-15T22:01:29.122Z,2.00
2022-09-15T22:04:01.671Z,1.83
2022-09-15T22:06:34.217Z,1.48
2022-09-15T22:09:06.838Z,1.80
2022-09-15T22:11:35.066Z,1.60
2022-09-15T22:14:04.379Z,1.75
2022-09-15T22:16:32.237Z,1.70
2022-09-15T22:18:59.803Z,2.13
2022-09-15T22:21:30.480Z,2.58
2022-09-15T22:24:04.266Z,1.60
2022-09-15T22:26:34.460Z,1.55
2022-09-15T22:29:02.006Z,1.77
2022-09-15T22:31:29.720Z,2.13
2022-09-15T22:33:57.034Z,1.63
2022-09-15T22:36:29.274Z,1.25
2022-09-15T22:39:04.693Z,1.65
2022-09-15T22:41:37.491Z,1.80
2022-09-15T22:44:05.902Z,1.40
2022-09-15T22:46:33.616Z,1.38
2022-09-15T22:49:00.883Z,1.37
2022-09-15T22:51:28.102Z,1.20
2022-09-15T22:53:56.839Z,1.23
2022-09-15T22:56:25.868Z,1.52
2022-09-15T22:58:53.173Z,1.43
2022-09-15T23:01:26.356Z,1.30
2022-09-15T23:03:58.697Z,1.47
2022-09-15T23:06:28.498Z,1.50
2022-09-15T23:08:58.113Z,1.60
2022-09-15T23:11:27.018Z,1.30
2022-09-15T23:13:55.518Z,1.60
2022-09-15T23:16:24.098Z,1.98
2022-09-15T23:18:52.585Z,1.97
2022-09-15T23:21:20.471Z,2.03
2022-09-15T23:23:48.908Z,2.03
2022-09-15T23:26:19.136Z,1.88
2022-09-15T23:28:46.849Z,1.67
2022-09-15T23:31:14.406Z,1.60
2022-09-15T23:33:42.258Z,1.60
2022-09-15T23:36:15.103Z,1.92
2022-09-15T23:38:44.526Z,1.60
2022-09-15T23:41:13.447Z,1.65
2022-09-15T23:43:41.256Z,1.27
2022-09-15T23:46:08.581Z,1.40
2022-09-15T23:48:35.922Z,1.40
2022-09-15T23:51:04.608Z,1.10
2022-09-15T23:53:31.822Z,1.10
2022-09-15T23:55:59.108Z,1.23
2022-09-15T23:58:26.404Z,1.20
